• Join FlightAware (Why Join?)
  • Login
  • US Flag 
04:44AM EDT


 

Airport Tracker/Info


-or-


 

Live Flight TrackerFlight Track Log ✈ N384GD ✈ 29-Aug-2013 ✈ KAUS - KTKI

Flight Track Log - Related Links

Times and Time Zones

All times are in EDT time to prevent confusion due to time zone crossing. See the N384GD flight status page for this flight to view local times or setup timezone preferences in your user account.

Time Position Orientation Groundspeed Altitude Reporting Facility
EDT Latitude Longitude Course Direction KTS MPH feet Rate Location/Type
04:18PM 30.1228 -97.5647 40° Northeast 205 236 5,100  Level Houston Center
04:19PM 30.1378 -97.5017 75° East 211 243 7,200 2,100 Climbing Houston Center
04:20PM 30.1892 -97.4706 28° Northeast 210 242 9,500 2,220 Climbing Houston Center
04:21PM 30.2417 -97.4542 15° North 196 226 11,900 2,100 Climbing Houston Center
04:22PM 30.2825 -97.4178 38° Northeast 182 209 13,900 1,740 Climbing Houston Center
04:23PM 30.2484 -97.6177 40° Northeast  Level FlightAware Approximate
04:23PM 30.3239 -97.3781 40° Northeast 190 219 15,600  Level Houston Center
04:24PM 30.3778 -97.3236 41° Northeast 215 247 17,400 1,500 Climbing Houston Center
04:25PM 30.4264 -97.2764 40° Northeast 225 259 18,800 1,380 Climbing Houston Center
04:26PM 30.4744 -97.2289 40° Northeast 225 259 20,300 1,440 Climbing Houston Center
04:27PM 30.5208 -97.1819 41° Northeast 222 255 21,800 780 Climbing Houston Center
04:28PM 30.5694 -97.1336 41° Northeast 233 268 22,000 60 Climbing Houston Center
04:29PM 30.6281 -97.0756 40° Northeast 270 311 22,000  Level Houston Center
04:30PM 30.6978 -97.0064 40° Northeast 280 322 22,000  Level Houston Center
04:31PM 30.7586 -96.9453 41° Northeast 286 329 22,000  Level Houston Center
04:32PM 30.8203 -96.8839 41° Northeast 291 335 22,000  Level Houston Center
04:33PM 30.8828 -96.8217 41° Northeast 297 342 22,000  Level Houston Center
04:34PM 30.9439 -96.7597 41° Northeast 293 337 22,000  Level Houston Center
04:35PM 31.0058 -96.6983 40° Northeast 294 338 22,000  Level Houston Center
04:36PM 31.0792 -96.6278 39° Northeast 293 337 22,000  Level Houston Center
04:37PM 31.1400 -96.5644 42° Northeast 291 335 22,000  Level Houston Center
04:38PM 31.2011 -96.5028 41° Northeast 292 336 22,000  Level Houston Center
04:39PM 31.2639 -96.4417 40° Northeast 292 336 22,000  Level Houston Center
04:40PM 31.3422 -96.4142 17° North 297 342 22,000  Level Houston Center
04:42PM 31.4275 -96.4125 North 302 348 22,000 -600 Level Houston Center
04:43PM 31.5303 -96.4083 North 313 360 20,800 -1,080 Descending Houston Center
04:44PM 31.6236 -96.4039 North 328 377 19,800 -900 Descending Houston Center
04:45PM 31.7158 -96.4003 North 329 379 19,000 -420 Descending Houston Center
04:46PM 31.8031 -96.3964 North 316 364 19,000 -180 Level Houston Center
04:47PM 31.8858 -96.3919 North 299 344 18,700 -780 Descending Houston Center
04:48PM 31.9878 -96.3894 North 307 353 17,400 -1,560 Descending Fort Worth Center
04:49PM 32.0797 -96.3836 North 320 368 15,400 -1,980 Descending Fort Worth Center
04:50PM 32.1631 -96.3803 North 307 353 13,500 -2,100 Descending Fort Worth Center
04:51PM 32.2550 -96.3817 359° North 301 346 11,300 -2,100 Descending Fort Worth Center
04:52PM 32.3261 -96.3881 356° North 290 334 9,400 -1,800 Descending Fort Worth Center
04:53PM 32.4119 -96.4069 349° North 284 327 7,800 -1,260 Descending Fort Worth Center
04:54PM 32.4789 -96.4233 348° North 276 318 6,900 -900 Descending Fort Worth Center
04:55PM 32.5603 -96.4422 349° North 276 318 6,000 -480 Descending Fort Worth Center
04:56PM 32.6253 -96.4589 348° North 271 312 6,000  Level Fort Worth Center
04:57PM 32.7089 -96.4778 349° North 271 312 6,100 -300 Climbing Fort Worth Center
04:58PM 32.7736 -96.4942 348° North 266 306 5,500 -600 Descending Fort Worth Center
04:59PM 32.8553 -96.5133 349° North 266 306 4,900 -600 Descending Fort Worth Center
05:00PM 32.9200 -96.5275 350° North 260 299 4,300 -480 Descending Fort Worth Center
05:01PM 32.9975 -96.5489 347° North 260 299 4,000 -600 Descending Fort Worth Center
05:02PM 33.0622 -96.5608 351° North 255 293 3,100 -900 Descending Fort Worth Center
05:03PM 33.1292 -96.5700 353° North 237 273 2,200 -840 Descending Fort Worth Center
05:04PM 33.1833 -96.5667 North 160 184 1,500 -600 Descending Dallas / Fort Worth TRACON
05:05PM 33.2000 -96.5667 360° North 126 145 1,100 -420 Descending Dallas / Fort Worth TRACON
05:07PM 33.1667 -96.5833 344° North  Level FlightAware Approximate
05:14PM 33.1771 -96.5888 344° North  Level Estimated